Portada
METAR-TAF:

METAR-TAF

Aeropuertos :

Meiringen, Suiza

latitud: 46-44-25N, longitud: 8-06-36E, altitud: 577 m

Observación

El informe se hizo hace 20 minutos, a las 11:50 UTC
Viento 4 kt del oeste, variando entre suroeste y noroeste
Temperatura 1°C
Humedad 75%
Presión 1001 hPa
Visibilidad 10 km o más
Escasas nubes a una altura de 2700 ft
Nubes dispersas a una altura de 3800 ft
Cielo cubierto a una altura de 4600 ft

METAR: LSMM 271150Z AUTO 27004KT 220V320 9999NDV FEW027 SCT038 OVC046 01/M03 Q1001 RMK

Hora: 13:10 (12:10 UTC)


TAF: falta

Observaciones y pronósticos meteorológicos de más de 4000 aeropuertos (mensajes METAR y TAF).

Los puntos amarillos y rojos representan las estaciones disponibles.

Ponga el ratón en el punto deseado para ver el nombre de la estación.

Haga clic para ver las observaciones y los pronósticos meteorológicos.

Para cambiar el mapa : haga clic en los botones verdes con una cruz de color negro para hacer un zoom, en el botón verde con un guión para alejar o en las flechas verdes para mapas adyacentes.


METAR-TAF: